sensor_id;sensor_type;location;lat;lon;timestamp;P1;durP1;ratioP1;P2;durP2;ratioP2
20454;SDS011;10386;54.314;10.022;2023-04-25T00:01:23;16.00;;;4.10;;
20454;SDS011;10386;54.314;10.022;2023-04-25T00:03:50;19.87;;;4.40;;
20454;SDS011;10386;54.314;10.022;2023-04-25T00:06:18;9.07;;;3.30;;
20454;SDS011;10386;54.314;10.022;2023-04-25T00:08:44;15.57;;;3.60;;
20454;SDS011;10386;54.314;10.022;2023-04-25T00:11:12;14.40;;;3.70;;
20454;SDS011;10386;54.314;10.022;2023-04-25T00:13:38;12.60;;;3.63;;
20454;SDS011;10386;54.314;10.022;2023-04-25T00:16:08;14.00;;;3.37;;
20454;SDS011;10386;54.314;10.022;2023-04-25T00:18:34;18.13;;;3.60;;
20454;SDS011;10386;54.314;10.022;2023-04-25T00:21:02;18.07;;;4.03;;
20454;SDS011;10386;54.314;10.022;2023-04-25T00:23:29;20.73;;;3.77;;
20454;SDS011;10386;54.314;10.022;2023-04-25T00:25:56;17.73;;;3.43;;
20454;SDS011;10386;54.314;10.022;2023-04-25T00:28:22;15.67;;;3.97;;
20454;SDS011;10386;54.314;10.022;2023-04-25T00:30:49;14.70;;;3.40;;
20454;SDS011;10386;54.314;10.022;2023-04-25T00:33:16;15.30;;;3.90;;
20454;SDS011;10386;54.314;10.022;2023-04-25T00:35:43;16.07;;;4.10;;
20454;SDS011;10386;54.314;10.022;2023-04-25T00:38:09;20.13;;;4.17;;
20454;SDS011;10386;54.314;10.022;2023-04-25T00:40:36;26.87;;;4.70;;
20454;SDS011;10386;54.314;10.022;2023-04-25T00:43:03;13.57;;;3.70;;
20454;SDS011;10386;54.314;10.022;2023-04-25T00:45:30;19.67;;;3.70;;
20454;SDS011;10386;54.314;10.022;2023-04-25T00:47:57;21.87;;;4.33;;
20454;SDS011;10386;54.314;10.022;2023-04-25T00:50:24;21.53;;;4.30;;
20454;SDS011;10386;54.314;10.022;2023-04-25T00:52:51;18.33;;;4.77;;
20454;SDS011;10386;54.314;10.022;2023-04-25T00:55:18;21.87;;;4.50;;
20454;SDS011;10386;54.314;10.022;2023-04-25T00:57:46;18.93;;;3.83;;
20454;SDS011;10386;54.314;10.022;2023-04-25T01:00:13;22.57;;;4.37;;
20454;SDS011;10386;54.314;10.022;2023-04-25T01:02:40;17.40;;;3.93;;
20454;SDS011;10386;54.314;10.022;2023-04-25T01:05:09;13.77;;;4.30;;
20454;SDS011;10386;54.314;10.022;2023-04-25T01:07:35;21.20;;;4.10;;
20454;SDS011;10386;54.314;10.022;2023-04-25T01:10:03;18.47;;;4.40;;
20454;SDS011;10386;54.314;10.022;2023-04-25T01:12:31;23.87;;;3.60;;
20454;SDS011;10386;54.314;10.022;2023-04-25T01:14:58;20.83;;;3.80;;
20454;SDS011;10386;54.314;10.022;2023-04-25T01:17:25;19.60;;;4.63;;
20454;SDS011;10386;54.314;10.022;2023-04-25T01:19:51;18.73;;;4.07;;
20454;SDS011;10386;54.314;10.022;2023-04-25T01:22:18;20.13;;;4.53;;
20454;SDS011;10386;54.314;10.022;2023-04-25T01:24:45;20.60;;;4.47;;
20454;SDS011;10386;54.314;10.022;2023-04-25T01:27:13;15.37;;;3.70;;
20454;SDS011;10386;54.314;10.022;2023-04-25T01:33:39;12.47;;;3.83;;
20454;SDS011;10386;54.314;10.022;2023-04-25T01:36:06;23.33;;;4.10;;
20454;SDS011;10386;54.314;10.022;2023-04-25T01:38:33;18.90;;;3.67;;
20454;SDS011;10386;54.314;10.022;2023-04-25T01:41:00;18.90;;;4.20;;
20454;SDS011;10386;54.314;10.022;2023-04-25T01:43:27;21.53;;;4.00;;
20454;SDS011;10386;54.314;10.022;2023-04-25T01:45:54;12.70;;;3.23;;
20454;SDS011;10386;54.314;10.022;2023-04-25T01:48:21;14.30;;;3.57;;
20454;SDS011;10386;54.314;10.022;2023-04-25T01:50:48;17.47;;;3.60;;
20454;SDS011;10386;54.314;10.022;2023-04-25T01:53:15;15.00;;;3.47;;
20454;SDS011;10386;54.314;10.022;2023-04-25T01:55:42;15.73;;;3.40;;
20454;SDS011;10386;54.314;10.022;2023-04-25T01:58:09;16.20;;;4.50;;
20454;SDS011;10386;54.314;10.022;2023-04-25T02:00:36;18.10;;;3.70;;
20454;SDS011;10386;54.314;10.022;2023-04-25T02:03:07;15.20;;;3.80;;
20454;SDS011;10386;54.314;10.022;2023-04-25T02:05:35;13.93;;;3.50;;
20454;SDS011;10386;54.314;10.022;2023-04-25T02:08:07;31.03;;;4.00;;
20454;SDS011;10386;54.314;10.022;2023-04-25T02:14:34;26.77;;;4.70;;
20454;SDS011;10386;54.314;10.022;2023-04-25T02:17:01;18.23;;;4.20;;
20454;SDS011;10386;54.314;10.022;2023-04-25T02:19:27;19.20;;;4.07;;
20454;SDS011;10386;54.314;10.022;2023-04-25T02:21:54;18.33;;;4.20;;
20454;SDS011;10386;54.314;10.022;2023-04-25T02:24:21;15.60;;;3.47;;
20454;SDS011;10386;54.314;10.022;2023-04-25T02:26:48;20.13;;;3.87;;
20454;SDS011;10386;54.314;10.022;2023-04-25T02:29:16;21.43;;;4.13;;
20454;SDS011;10386;54.314;10.022;2023-04-25T02:31:42;25.47;;;4.60;;
20454;SDS011;10386;54.314;10.022;2023-04-25T02:34:09;16.83;;;4.43;;
20454;SDS011;10386;54.314;10.022;2023-04-25T02:36:36;19.87;;;3.87;;
20454;SDS011;10386;54.314;10.022;2023-04-25T02:39:03;22.10;;;4.57;;
20454;SDS011;10386;54.314;10.022;2023-04-25T02:41:30;16.93;;;4.40;;
20454;SDS011;10386;54.314;10.022;2023-04-25T02:43:56;28.43;;;4.57;;
20454;SDS011;10386;54.314;10.022;2023-04-25T02:46:23;16.30;;;3.90;;
20454;SDS011;10386;54.314;10.022;2023-04-25T02:49:04;30.87;;;5.07;;
20454;SDS011;10386;54.314;10.022;2023-04-25T02:51:31;17.60;;;4.63;;
20454;SDS011;10386;54.314;10.022;2023-04-25T02:53:58;24.43;;;4.93;;
20454;SDS011;10386;54.314;10.022;2023-04-25T02:56:25;19.80;;;4.97;;
20454;SDS011;10386;54.314;10.022;2023-04-25T02:58:53;17.57;;;4.17;;
20454;SDS011;10386;54.314;10.022;2023-04-25T03:01:20;23.87;;;5.70;;
20454;SDS011;10386;54.314;10.022;2023-04-25T03:03:47;30.30;;;5.27;;
20454;SDS011;10386;54.314;10.022;2023-04-25T03:06:14;19.70;;;3.97;;
20454;SDS011;10386;54.314;10.022;2023-04-25T03:08:41;23.40;;;4.37;;
20454;SDS011;10386;54.314;10.022;2023-04-25T03:11:09;21.83;;;4.40;;
20454;SDS011;10386;54.314;10.022;2023-04-25T03:17:53;21.43;;;4.27;;
20454;SDS011;10386;54.314;10.022;2023-04-25T03:34:03;15.37;;;4.03;;
20454;SDS011;10386;54.314;10.022;2023-04-25T03:46:44;20.53;;;4.53;;
20454;SDS011;10386;54.314;10.022;2023-04-25T03:49:10;13.07;;;4.13;;
20454;SDS011;10386;54.314;10.022;2023-04-25T03:51:37;23.53;;;4.20;;
20454;SDS011;10386;54.314;10.022;2023-04-25T03:54:04;17.50;;;4.07;;
20454;SDS011;10386;54.314;10.022;2023-04-25T03:56:30;11.53;;;3.50;;
20454;SDS011;10386;54.314;10.022;2023-04-25T03:58:57;24.77;;;3.80;;
20454;SDS011;10386;54.314;10.022;2023-04-25T04:01:24;15.17;;;3.63;;
20454;SDS011;10386;54.314;10.022;2023-04-25T04:03:51;14.43;;;3.57;;
20454;SDS011;10386;54.314;10.022;2023-04-25T04:06:18;15.53;;;4.10;;
20454;SDS011;10386;54.314;10.022;2023-04-25T04:08:46;17.67;;;4.47;;
20454;SDS011;10386;54.314;10.022;2023-04-25T04:11:13;19.07;;;4.10;;
20454;SDS011;10386;54.314;10.022;2023-04-25T04:13:40;30.10;;;4.77;;
20454;SDS011;10386;54.314;10.022;2023-04-25T04:16:07;18.80;;;3.80;;
20454;SDS011;10386;54.314;10.022;2023-04-25T04:18:34;22.60;;;3.87;;
20454;SDS011;10386;54.314;10.022;2023-04-25T04:21:01;15.10;;;4.13;;
20454;SDS011;10386;54.314;10.022;2023-04-25T04:23:27;16.47;;;3.70;;
20454;SDS011;10386;54.314;10.022;2023-04-25T04:25:54;17.37;;;3.90;;
20454;SDS011;10386;54.314;10.022;2023-04-25T04:28:21;19.37;;;3.70;;
20454;SDS011;10386;54.314;10.022;2023-04-25T04:30:48;20.93;;;4.20;;
20454;SDS011;10386;54.314;10.022;2023-04-25T04:33:17;14.10;;;3.47;;
20454;SDS011;10386;54.314;10.022;2023-04-25T04:35:47;21.13;;;5.00;;
20454;SDS011;10386;54.314;10.022;2023-04-25T04:38:14;12.57;;;3.23;;
20454;SDS011;10386;54.314;10.022;2023-04-25T04:40:41;13.33;;;3.50;;
20454;SDS011;10386;54.314;10.022;2023-04-25T04:43:09;18.37;;;3.30;;
20454;SDS011;10386;54.314;10.022;2023-04-25T04:45:36;19.70;;;3.33;;
20454;SDS011;10386;54.314;10.022;2023-04-25T04:48:05;14.73;;;3.17;;
20454;SDS011;10386;54.314;10.022;2023-04-25T04:50:32;16.57;;;3.30;;
20454;SDS011;10386;54.314;10.022;2023-04-25T04:53:00;19.97;;;4.00;;
20454;SDS011;10386;54.314;10.022;2023-04-25T04:55:26;18.07;;;3.50;;
20454;SDS011;10386;54.314;10.022;2023-04-25T04:57:53;21.87;;;4.20;;
20454;SDS011;10386;54.314;10.022;2023-04-25T05:00:20;17.47;;;3.37;;
20454;SDS011;10386;54.314;10.022;2023-04-25T05:02:47;13.60;;;3.47;;
20454;SDS011;10386;54.314;10.022;2023-04-25T05:05:14;16.50;;;3.63;;
20454;SDS011;10386;54.314;10.022;2023-04-25T05:07:41;14.93;;;3.43;;
20454;SDS011;10386;54.314;10.022;2023-04-25T05:10:08;13.47;;;3.03;;
20454;SDS011;10386;54.314;10.022;2023-04-25T05:12:35;19.97;;;3.37;;
20454;SDS011;10386;54.314;10.022;2023-04-25T05:15:02;16.60;;;3.70;;
20454;SDS011;10386;54.314;10.022;2023-04-25T05:17:29;21.17;;;3.73;;
20454;SDS011;10386;54.314;10.022;2023-04-25T05:19:56;20.10;;;3.70;;
20454;SDS011;10386;54.314;10.022;2023-04-25T05:22:23;15.13;;;3.40;;
20454;SDS011;10386;54.314;10.022;2023-04-25T05:25:03;19.37;;;3.50;;
20454;SDS011;10386;54.314;10.022;2023-04-25T05:27:31;9.43;;;2.60;;
20454;SDS011;10386;54.314;10.022;2023-04-25T05:29:57;12.50;;;3.10;;
20454;SDS011;10386;54.314;10.022;2023-04-25T05:32:24;13.60;;;3.40;;
20454;SDS011;10386;54.314;10.022;2023-04-25T05:34:51;17.47;;;3.57;;
20454;SDS011;10386;54.314;10.022;2023-04-25T05:37:18;21.87;;;3.50;;
20454;SDS011;10386;54.314;10.022;2023-04-25T05:39:45;13.40;;;2.73;;
20454;SDS011;10386;54.314;10.022;2023-04-25T05:42:11;22.93;;;3.60;;
20454;SDS011;10386;54.314;10.022;2023-04-25T05:44:38;18.47;;;3.07;;
20454;SDS011;10386;54.314;10.022;2023-04-25T05:47:05;17.13;;;3.17;;
20454;SDS011;10386;54.314;10.022;2023-04-25T05:49:33;20.60;;;3.20;;
20454;SDS011;10386;54.314;10.022;2023-04-25T05:52:01;21.67;;;3.97;;
20454;SDS011;10386;54.314;10.022;2023-04-25T05:54:27;12.50;;;3.00;;
20454;SDS011;10386;54.314;10.022;2023-04-25T05:56:55;15.27;;;3.37;;
20454;SDS011;10386;54.314;10.022;2023-04-25T05:59:23;19.10;;;3.33;;
20454;SDS011;10386;54.314;10.022;2023-04-25T06:01:50;16.70;;;3.53;;
20454;SDS011;10386;54.314;10.022;2023-04-25T06:04:17;17.07;;;2.83;;
20454;SDS011;10386;54.314;10.022;2023-04-25T06:06:46;16.63;;;3.10;;
20454;SDS011;10386;54.314;10.022;2023-04-25T06:09:12;12.90;;;3.30;;
20454;SDS011;10386;54.314;10.022;2023-04-25T06:11:39;17.53;;;3.30;;
20454;SDS011;10386;54.314;10.022;2023-04-25T06:14:06;16.90;;;3.10;;
20454;SDS011;10386;54.314;10.022;2023-04-25T06:16:36;13.43;;;3.40;;
20454;SDS011;10386;54.314;10.022;2023-04-25T06:19:02;12.07;;;3.00;;
20454;SDS011;10386;54.314;10.022;2023-04-25T06:21:29;14.43;;;2.97;;
20454;SDS011;10386;54.314;10.022;2023-04-25T06:23:57;16.27;;;3.40;;
20454;SDS011;10386;54.314;10.022;2023-04-25T06:26:24;16.37;;;3.87;;
20454;SDS011;10386;54.314;10.022;2023-04-25T06:28:51;19.17;;;3.83;;
20454;SDS011;10386;54.314;10.022;2023-04-25T06:31:17;12.70;;;3.77;;
20454;SDS011;10386;54.314;10.022;2023-04-25T06:33:44;18.10;;;3.63;;
20454;SDS011;10386;54.314;10.022;2023-04-25T06:36:11;17.73;;;3.57;;
20454;SDS011;10386;54.314;10.022;2023-04-25T06:38:37;17.95;;;4.18;;
20454;SDS011;10386;54.314;10.022;2023-04-25T06:41:04;16.80;;;3.40;;
20454;SDS011;10386;54.314;10.022;2023-04-25T06:43:31;15.40;;;3.57;;
20454;SDS011;10386;54.314;10.022;2023-04-25T06:45:59;17.50;;;2.70;;
20454;SDS011;10386;54.314;10.022;2023-04-25T06:48:27;16.30;;;3.43;;
20454;SDS011;10386;54.314;10.022;2023-04-25T06:50:54;13.60;;;3.50;;
20454;SDS011;10386;54.314;10.022;2023-04-25T06:53:20;14.17;;;3.27;;
20454;SDS011;10386;54.314;10.022;2023-04-25T06:55:47;15.93;;;3.60;;
20454;SDS011;10386;54.314;10.022;2023-04-25T06:58:14;22.63;;;4.17;;
20454;SDS011;10386;54.314;10.022;2023-04-25T07:00:40;24.17;;;4.40;;
20454;SDS011;10386;54.314;10.022;2023-04-25T07:03:07;15.60;;;3.03;;
20454;SDS011;10386;54.314;10.022;2023-04-25T07:05:34;24.47;;;3.67;;
20454;SDS011;10386;54.314;10.022;2023-04-25T07:08:01;15.13;;;3.23;;
20454;SDS011;10386;54.314;10.022;2023-04-25T07:10:29;17.77;;;3.13;;
20454;SDS011;10386;54.314;10.022;2023-04-25T07:12:56;19.27;;;3.73;;
20454;SDS011;10386;54.314;10.022;2023-04-25T07:15:22;18.97;;;3.43;;
20454;SDS011;10386;54.314;10.022;2023-04-25T07:17:49;18.40;;;4.37;;
20454;SDS011;10386;54.314;10.022;2023-04-25T07:20:16;15.13;;;3.67;;
20454;SDS011;10386;54.314;10.022;2023-04-25T07:22:43;13.77;;;3.43;;
20454;SDS011;10386;54.314;10.022;2023-04-25T07:25:10;13.60;;;3.47;;
20454;SDS011;10386;54.314;10.022;2023-04-25T07:27:36;12.20;;;2.87;;
20454;SDS011;10386;54.314;10.022;2023-04-25T07:30:03;18.70;;;3.07;;
20454;SDS011;10386;54.314;10.022;2023-04-25T07:32:31;13.07;;;3.40;;
20454;SDS011;10386;54.314;10.022;2023-04-25T07:34:58;19.93;;;3.03;;
20454;SDS011;10386;54.314;10.022;2023-04-25T07:37:24;16.43;;;2.93;;
20454;SDS011;10386;54.314;10.022;2023-04-25T07:39:52;12.83;;;2.60;;
20454;SDS011;10386;54.314;10.022;2023-04-25T07:42:19;15.57;;;3.60;;
20454;SDS011;10386;54.314;10.022;2023-04-25T07:44:45;16.30;;;3.17;;
20454;SDS011;10386;54.314;10.022;2023-04-25T07:47:13;10.30;;;2.90;;
20454;SDS011;10386;54.314;10.022;2023-04-25T07:49:40;10.70;;;3.10;;
20454;SDS011;10386;54.314;10.022;2023-04-25T07:52:07;15.83;;;3.10;;
20454;SDS011;10386;54.314;10.022;2023-04-25T07:54:34;16.67;;;3.10;;
20454;SDS011;10386;54.314;10.022;2023-04-25T07:57:00;13.73;;;2.80;;
20454;SDS011;10386;54.314;10.022;2023-04-25T07:59:28;15.50;;;3.20;;
20454;SDS011;10386;54.314;10.022;2023-04-25T08:01:55;21.53;;;2.93;;
20454;SDS011;10386;54.314;10.022;2023-04-25T08:04:24;16.67;;;3.93;;
20454;SDS011;10386;54.314;10.022;2023-04-25T08:06:52;17.97;;;2.93;;
20454;SDS011;10386;54.314;10.022;2023-04-25T08:09:20;16.17;;;3.40;;
20454;SDS011;10386;54.314;10.022;2023-04-25T08:11:47;11.50;;;3.10;;
20454;SDS011;10386;54.314;10.022;2023-04-25T08:14:14;16.27;;;3.10;;
20454;SDS011;10386;54.314;10.022;2023-04-25T08:16:40;9.97;;;2.47;;
20454;SDS011;10386;54.314;10.022;2023-04-25T08:19:08;13.77;;;2.80;;
20454;SDS011;10386;54.314;10.022;2023-04-25T08:21:37;19.90;;;2.83;;
20454;SDS011;10386;54.314;10.022;2023-04-25T08:24:04;11.07;;;2.70;;
20454;SDS011;10386;54.314;10.022;2023-04-25T08:26:31;10.00;;;2.27;;
20454;SDS011;10386;54.314;10.022;2023-04-25T08:28:58;12.07;;;2.70;;
20454;SDS011;10386;54.314;10.022;2023-04-25T08:31:25;13.60;;;2.10;;
20454;SDS011;10386;54.314;10.022;2023-04-25T08:33:52;7.97;;;2.40;;
20454;SDS011;10386;54.314;10.022;2023-04-25T08:36:18;14.07;;;2.33;;
20454;SDS011;10386;54.314;10.022;2023-04-25T08:39:03;15.07;;;3.07;;
20454;SDS011;10386;54.314;10.022;2023-04-25T08:41:30;9.43;;;2.73;;
20454;SDS011;10386;54.314;10.022;2023-04-25T08:43:58;10.03;;;2.60;;
20454;SDS011;10386;54.314;10.022;2023-04-25T08:46:27;11.60;;;3.03;;
20454;SDS011;10386;54.314;10.022;2023-04-25T08:48:56;11.23;;;2.53;;
20454;SDS011;10386;54.314;10.022;2023-04-25T08:51:27;3.73;;;1.90;;
20454;SDS011;10386;54.314;10.022;2023-04-25T08:54:05;5.73;;;2.13;;
20454;SDS011;10386;54.314;10.022;2023-04-25T08:56:56;10.57;;;2.13;;
20454;SDS011;10386;54.314;10.022;2023-04-25T08:59:26;8.00;;;1.93;;
20454;SDS011;10386;54.314;10.022;2023-04-25T09:01:53;17.23;;;3.00;;
20454;SDS011;10386;54.314;10.022;2023-04-25T09:04:21;11.30;;;2.33;;
20454;SDS011;10386;54.314;10.022;2023-04-25T09:06:48;13.83;;;2.70;;
20454;SDS011;10386;54.314;10.022;2023-04-25T09:09:14;11.10;;;2.60;;
20454;SDS011;10386;54.314;10.022;2023-04-25T09:11:41;11.03;;;2.57;;
20454;SDS011;10386;54.314;10.022;2023-04-25T09:19:36;6.10;;;2.17;;
20454;SDS011;10386;54.314;10.022;2023-04-25T09:22:08;10.70;;;3.73;;
20454;SDS011;10386;54.314;10.022;2023-04-25T09:24:38;10.90;;;2.73;;
20454;SDS011;10386;54.314;10.022;2023-04-25T09:27:08;10.33;;;2.60;;
20454;SDS011;10386;54.314;10.022;2023-04-25T09:29:38;15.43;;;2.97;;
20454;SDS011;10386;54.314;10.022;2023-04-25T09:32:10;13.70;;;2.77;;
20454;SDS011;10386;54.314;10.022;2023-04-25T09:34:43;14.90;;;2.90;;
20454;SDS011;10386;54.314;10.022;2023-04-25T09:37:11;10.30;;;2.30;;
20454;SDS011;10386;54.314;10.022;2023-04-25T09:39:38;10.30;;;2.50;;
20454;SDS011;10386;54.314;10.022;2023-04-25T09:42:05;14.40;;;2.90;;
20454;SDS011;10386;54.314;10.022;2023-04-25T09:44:32;10.63;;;2.40;;
20454;SDS011;10386;54.314;10.022;2023-04-25T09:46:59;12.40;;;2.73;;
20454;SDS011;10386;54.314;10.022;2023-04-25T09:49:26;7.33;;;2.50;;
20454;SDS011;10386;54.314;10.022;2023-04-25T09:51:57;10.27;;;2.40;;
20454;SDS011;10386;54.314;10.022;2023-04-25T09:54:24;13.20;;;3.00;;
20454;SDS011;10386;54.314;10.022;2023-04-25T09:56:52;15.67;;;2.90;;
20454;SDS011;10386;54.314;10.022;2023-04-25T09:59:20;17.40;;;2.93;;
20454;SDS011;10386;54.314;10.022;2023-04-25T10:01:49;11.43;;;2.93;;
20454;SDS011;10386;54.314;10.022;2023-04-25T10:04:18;12.60;;;2.87;;
20454;SDS011;10386;54.314;10.022;2023-04-25T10:06:49;9.10;;;2.23;;
20454;SDS011;10386;54.314;10.022;2023-04-25T10:09:19;13.33;;;2.60;;
20454;SDS011;10386;54.314;10.022;2023-04-25T10:11:47;12.20;;;2.20;;
20454;SDS011;10386;54.314;10.022;2023-04-25T10:14:14;10.40;;;2.50;;
20454;SDS011;10386;54.314;10.022;2023-04-25T10:16:42;6.67;;;2.20;;
20454;SDS011;10386;54.314;10.022;2023-04-25T10:19:09;10.97;;;3.03;;
20454;SDS011;10386;54.314;10.022;2023-04-25T10:21:40;11.20;;;2.40;;
20454;SDS011;10386;54.314;10.022;2023-04-25T10:24:14;8.03;;;2.10;;
20454;SDS011;10386;54.314;10.022;2023-04-25T10:26:41;8.97;;;2.10;;
20454;SDS011;10386;54.314;10.022;2023-04-25T10:29:08;9.33;;;2.00;;
20454;SDS011;10386;54.314;10.022;2023-04-25T10:31:44;4.40;;;1.77;;
20454;SDS011;10386;54.314;10.022;2023-04-25T10:34:12;3.70;;;1.30;;
20454;SDS011;10386;54.314;10.022;2023-04-25T10:36:39;7.07;;;1.57;;
20454;SDS011;10386;54.314;10.022;2023-04-25T10:39:06;5.80;;;2.50;;
20454;SDS011;10386;54.314;10.022;2023-04-25T10:44:34;6.93;;;1.80;;
20454;SDS011;10386;54.314;10.022;2023-04-25T10:47:05;6.07;;;2.00;;
20454;SDS011;10386;54.314;10.022;2023-04-25T10:49:34;9.73;;;1.80;;
20454;SDS011;10386;54.314;10.022;2023-04-25T10:52:19;5.63;;;2.03;;
20454;SDS011;10386;54.314;10.022;2023-04-25T10:54:52;9.03;;;1.87;;
20454;SDS011;10386;54.314;10.022;2023-04-25T10:57:30;8.90;;;1.90;;
20454;SDS011;10386;54.314;10.022;2023-04-25T10:59:58;5.40;;;1.70;;
20454;SDS011;10386;54.314;10.022;2023-04-25T11:02:36;8.23;;;2.20;;
20454;SDS011;10386;54.314;10.022;2023-04-25T11:05:04;5.90;;;2.23;;
20454;SDS011;10386;54.314;10.022;2023-04-25T11:07:34;9.60;;;2.20;;
20454;SDS011;10386;54.314;10.022;2023-04-25T11:10:04;4.20;;;2.10;;
20454;SDS011;10386;54.314;10.022;2023-04-25T11:12:32;4.33;;;1.63;;
20454;SDS011;10386;54.314;10.022;2023-04-25T11:14:59;3.80;;;1.47;;
20454;SDS011;10386;54.314;10.022;2023-04-25T11:17:30;6.27;;;1.83;;
20454;SDS011;10386;54.314;10.022;2023-04-25T11:19:57;6.23;;;1.87;;
20454;SDS011;10386;54.314;10.022;2023-04-25T11:22:24;6.47;;;1.80;;
20454;SDS011;10386;54.314;10.022;2023-04-25T11:24:53;7.43;;;1.90;;
20454;SDS011;10386;54.314;10.022;2023-04-25T11:27:20;7.17;;;1.93;;
20454;SDS011;10386;54.314;10.022;2023-04-25T11:29:47;8.23;;;1.70;;
20454;SDS011;10386;54.314;10.022;2023-04-25T11:32:15;8.83;;;1.80;;
20454;SDS011;10386;54.314;10.022;2023-04-25T11:34:44;8.47;;;1.77;;
20454;SDS011;10386;54.314;10.022;2023-04-25T11:37:14;7.33;;;2.07;;
20454;SDS011;10386;54.314;10.022;2023-04-25T11:39:44;11.27;;;1.93;;
20454;SDS011;10386;54.314;10.022;2023-04-25T11:42:14;9.30;;;1.83;;
20454;SDS011;10386;54.314;10.022;2023-04-25T11:44:41;8.80;;;2.57;;
20454;SDS011;10386;54.314;10.022;2023-04-25T11:47:08;3.23;;;1.70;;
20454;SDS011;10386;54.314;10.022;2023-04-25T11:49:35;5.53;;;1.93;;
20454;SDS011;10386;54.314;10.022;2023-04-25T11:52:02;7.67;;;1.97;;
20454;SDS011;10386;54.314;10.022;2023-04-25T11:54:29;10.67;;;2.20;;
20454;SDS011;10386;54.314;10.022;2023-04-25T11:56:56;10.53;;;2.30;;
20454;SDS011;10386;54.314;10.022;2023-04-25T11:59:23;10.00;;;2.20;;
20454;SDS011;10386;54.314;10.022;2023-04-25T12:01:51;13.00;;;2.07;;
20454;SDS011;10386;54.314;10.022;2023-04-25T12:04:22;5.47;;;1.63;;
20454;SDS011;10386;54.314;10.022;2023-04-25T12:06:53;10.77;;;2.23;;
20454;SDS011;10386;54.314;10.022;2023-04-25T12:09:28;5.47;;;2.07;;
20454;SDS011;10386;54.314;10.022;2023-04-25T12:11:59;8.37;;;2.13;;
20454;SDS011;10386;54.314;10.022;2023-04-25T12:14:30;8.67;;;2.30;;
20454;SDS011;10386;54.314;10.022;2023-04-25T12:16:59;10.20;;;2.20;;
20454;SDS011;10386;54.314;10.022;2023-04-25T12:19:32;7.27;;;2.13;;
20454;SDS011;10386;54.314;10.022;2023-04-25T12:22:02;7.70;;;2.30;;
20454;SDS011;10386;54.314;10.022;2023-04-25T12:24:32;6.83;;;2.00;;
20454;SDS011;10386;54.314;10.022;2023-04-25T12:27:04;5.33;;;2.50;;
20454;SDS011;10386;54.314;10.022;2023-04-25T12:29:32;8.27;;;1.87;;
20454;SDS011;10386;54.314;10.022;2023-04-25T12:32:14;8.17;;;2.53;;
20454;SDS011;10386;54.314;10.022;2023-04-25T12:34:42;10.23;;;2.23;;
20454;SDS011;10386;54.314;10.022;2023-04-25T12:37:09;7.67;;;2.63;;
20454;SDS011;10386;54.314;10.022;2023-04-25T12:39:36;11.83;;;2.80;;
20454;SDS011;10386;54.314;10.022;2023-04-25T12:42:03;10.23;;;2.07;;
20454;SDS011;10386;54.314;10.022;2023-04-25T12:44:33;14.90;;;2.50;;
20454;SDS011;10386;54.314;10.022;2023-04-25T12:47:00;10.17;;;2.37;;
20454;SDS011;10386;54.314;10.022;2023-04-25T12:49:27;7.33;;;2.33;;
20454;SDS011;10386;54.314;10.022;2023-04-25T12:51:54;7.20;;;2.03;;
20454;SDS011;10386;54.314;10.022;2023-04-25T12:54:23;17.90;;;2.77;;
20454;SDS011;10386;54.314;10.022;2023-04-25T12:56:50;12.70;;;2.23;;
20454;SDS011;10386;54.314;10.022;2023-04-25T12:59:17;5.27;;;1.77;;
20454;SDS011;10386;54.314;10.022;2023-04-25T13:01:44;6.30;;;2.20;;
20454;SDS011;10386;54.314;10.022;2023-04-25T13:04:11;13.60;;;2.83;;
20454;SDS011;10386;54.314;10.022;2023-04-25T13:06:39;8.83;;;2.20;;
20454;SDS011;10386;54.314;10.022;2023-04-25T13:09:05;10.70;;;2.20;;
20454;SDS011;10386;54.314;10.022;2023-04-25T13:11:33;13.73;;;2.70;;
20454;SDS011;10386;54.314;10.022;2023-04-25T13:14:00;16.30;;;2.80;;
20454;SDS011;10386;54.314;10.022;2023-04-25T13:16:27;8.87;;;1.97;;
20454;SDS011;10386;54.314;10.022;2023-04-25T13:18:54;9.00;;;2.27;;
20454;SDS011;10386;54.314;10.022;2023-04-25T13:21:22;10.07;;;2.50;;
20454;SDS011;10386;54.314;10.022;2023-04-25T13:23:49;9.40;;;2.40;;
20454;SDS011;10386;54.314;10.022;2023-04-25T13:26:17;10.93;;;2.17;;
20454;SDS011;10386;54.314;10.022;2023-04-25T13:28:44;9.70;;;2.43;;
20454;SDS011;10386;54.314;10.022;2023-04-25T13:31:11;12.50;;;2.47;;
20454;SDS011;10386;54.314;10.022;2023-04-25T13:33:37;17.63;;;2.90;;
20454;SDS011;10386;54.314;10.022;2023-04-25T13:36:04;9.70;;;2.47;;
20454;SDS011;10386;54.314;10.022;2023-04-25T13:38:31;9.07;;;2.47;;
20454;SDS011;10386;54.314;10.022;2023-04-25T13:40:58;8.93;;;2.87;;
20454;SDS011;10386;54.314;10.022;2023-04-25T13:43:25;6.00;;;2.20;;
20454;SDS011;10386;54.314;10.022;2023-04-25T13:45:52;14.87;;;2.80;;
20454;SDS011;10386;54.314;10.022;2023-04-25T13:48:19;11.00;;;2.53;;
20454;SDS011;10386;54.314;10.022;2023-04-25T13:50:46;8.13;;;2.03;;
20454;SDS011;10386;54.314;10.022;2023-04-25T13:53:13;9.23;;;2.47;;
20454;SDS011;10386;54.314;10.022;2023-04-25T13:55:40;10.50;;;2.60;;
20454;SDS011;10386;54.314;10.022;2023-04-25T13:58:07;7.72;;;2.47;;
20454;SDS011;10386;54.314;10.022;2023-04-25T14:00:36;13.73;;;2.40;;
20454;SDS011;10386;54.314;10.022;2023-04-25T14:03:09;11.77;;;2.27;;
20454;SDS011;10386;54.314;10.022;2023-04-25T14:05:37;14.03;;;2.50;;
20454;SDS011;10386;54.314;10.022;2023-04-25T14:08:05;9.10;;;2.57;;
20454;SDS011;10386;54.314;10.022;2023-04-25T14:10:36;12.10;;;3.13;;
20454;SDS011;10386;54.314;10.022;2023-04-25T14:13:04;8.87;;;2.10;;
20454;SDS011;10386;54.314;10.022;2023-04-25T14:15:33;10.53;;;2.33;;
20454;SDS011;10386;54.314;10.022;2023-04-25T14:18:01;9.20;;;2.40;;
20454;SDS011;10386;54.314;10.022;2023-04-25T14:20:28;9.67;;;2.07;;
20454;SDS011;10386;54.314;10.022;2023-04-25T14:22:56;10.33;;;2.10;;
20454;SDS011;10386;54.314;10.022;2023-04-25T14:25:24;10.33;;;2.27;;
20454;SDS011;10386;54.314;10.022;2023-04-25T14:27:51;9.80;;;2.00;;
20454;SDS011;10386;54.314;10.022;2023-04-25T14:30:19;8.13;;;2.10;;
20454;SDS011;10386;54.314;10.022;2023-04-25T14:32:48;7.87;;;2.47;;
20454;SDS011;10386;54.314;10.022;2023-04-25T14:35:15;3.83;;;2.00;;
20454;SDS011;10386;54.314;10.022;2023-04-25T14:37:42;8.03;;;2.10;;
20454;SDS011;10386;54.314;10.022;2023-04-25T14:40:09;6.30;;;2.20;;
20454;SDS011;10386;54.314;10.022;2023-04-25T14:42:37;11.83;;;2.47;;
20454;SDS011;10386;54.314;10.022;2023-04-25T14:45:04;7.47;;;2.33;;
20454;SDS011;10386;54.314;10.022;2023-04-25T14:47:34;7.83;;;2.07;;
20454;SDS011;10386;54.314;10.022;2023-04-25T14:50:02;14.20;;;2.47;;
20454;SDS011;10386;54.314;10.022;2023-04-25T14:52:29;15.10;;;2.70;;
20454;SDS011;10386;54.314;10.022;2023-04-25T14:54:56;7.80;;;2.07;;
20454;SDS011;10386;54.314;10.022;2023-04-25T14:57:22;8.93;;;2.50;;
20454;SDS011;10386;54.314;10.022;2023-04-25T14:59:49;9.80;;;2.50;;
20454;SDS011;10386;54.314;10.022;2023-04-25T15:02:16;12.23;;;2.63;;
20454;SDS011;10386;54.314;10.022;2023-04-25T15:04:43;13.63;;;2.60;;
20454;SDS011;10386;54.314;10.022;2023-04-25T15:07:10;11.87;;;2.40;;
20454;SDS011;10386;54.314;10.022;2023-04-25T15:09:37;5.97;;;1.80;;
20454;SDS011;10386;54.314;10.022;2023-04-25T15:12:04;11.80;;;2.27;;
20454;SDS011;10386;54.314;10.022;2023-04-25T15:14:31;18.27;;;2.77;;